sensor_id;sensor_type;location;lat;lon;timestamp;P1;durP1;ratioP1;P2;durP2;ratioP2
20393;SDS011;10356;50.544;9.642;2023-04-29T00:00:24;8.25;;;6.63;;
20393;SDS011;10356;50.544;9.642;2023-04-29T00:02:50;10.27;;;7.25;;
20393;SDS011;10356;50.544;9.642;2023-04-29T00:05:16;7.90;;;7.07;;
20393;SDS011;10356;50.544;9.642;2023-04-29T00:07:43;11.50;;;7.88;;
20393;SDS011;10356;50.544;9.642;2023-04-29T00:10:10;10.02;;;8.20;;
20393;SDS011;10356;50.544;9.642;2023-04-29T00:12:38;9.32;;;8.07;;
20393;SDS011;10356;50.544;9.642;2023-04-29T00:15:05;9.65;;;7.78;;
20393;SDS011;10356;50.544;9.642;2023-04-29T00:17:34;13.65;;;9.00;;
20393;SDS011;10356;50.544;9.642;2023-04-29T00:20:00;13.32;;;10.63;;
20393;SDS011;10356;50.544;9.642;2023-04-29T00:22:27;15.07;;;9.20;;
20393;SDS011;10356;50.544;9.642;2023-04-29T00:24:54;10.13;;;8.23;;
20393;SDS011;10356;50.544;9.642;2023-04-29T00:27:20;9.10;;;8.15;;
20393;SDS011;10356;50.544;9.642;2023-04-29T00:29:47;10.13;;;8.25;;
20393;SDS011;10356;50.544;9.642;2023-04-29T00:32:13;9.30;;;7.90;;
20393;SDS011;10356;50.544;9.642;2023-04-29T00:34:41;9.85;;;8.13;;
20393;SDS011;10356;50.544;9.642;2023-04-29T00:37:08;7.65;;;6.88;;
20393;SDS011;10356;50.544;9.642;2023-04-29T00:39:34;9.25;;;7.03;;
20393;SDS011;10356;50.544;9.642;2023-04-29T00:42:01;7.50;;;6.38;;
20393;SDS011;10356;50.544;9.642;2023-04-29T00:44:28;8.18;;;7.10;;
20393;SDS011;10356;50.544;9.642;2023-04-29T00:46:54;8.55;;;6.90;;
20393;SDS011;10356;50.544;9.642;2023-04-29T00:49:21;9.18;;;7.18;;
20393;SDS011;10356;50.544;9.642;2023-04-29T00:51:49;7.63;;;6.72;;
20393;SDS011;10356;50.544;9.642;2023-04-29T00:54:16;10.07;;;7.18;;
20393;SDS011;10356;50.544;9.642;2023-04-29T00:56:44;11.10;;;7.40;;
20393;SDS011;10356;50.544;9.642;2023-04-29T00:59:11;9.80;;;7.45;;
20393;SDS011;10356;50.544;9.642;2023-04-29T01:01:39;12.47;;;7.67;;
20393;SDS011;10356;50.544;9.642;2023-04-29T01:04:06;9.73;;;7.10;;
20393;SDS011;10356;50.544;9.642;2023-04-29T01:06:35;12.52;;;7.88;;
20393;SDS011;10356;50.544;9.642;2023-04-29T01:09:21;9.68;;;7.85;;
20393;SDS011;10356;50.544;9.642;2023-04-29T01:11:54;13.15;;;7.82;;
20393;SDS011;10356;50.544;9.642;2023-04-29T01:14:31;10.48;;;7.70;;
20393;SDS011;10356;50.544;9.642;2023-04-29T01:16:59;10.68;;;7.68;;
20393;SDS011;10356;50.544;9.642;2023-04-29T01:19:38;8.88;;;7.40;;
20393;SDS011;10356;50.544;9.642;2023-04-29T01:22:09;11.27;;;8.32;;
20393;SDS011;10356;50.544;9.642;2023-04-29T01:24:38;10.85;;;7.80;;
20393;SDS011;10356;50.544;9.642;2023-04-29T01:27:08;8.90;;;7.60;;
20393;SDS011;10356;50.544;9.642;2023-04-29T01:29:41;10.38;;;7.88;;
20393;SDS011;10356;50.544;9.642;2023-04-29T01:32:16;11.32;;;7.88;;
20393;SDS011;10356;50.544;9.642;2023-04-29T01:34:48;10.70;;;7.90;;
20393;SDS011;10356;50.544;9.642;2023-04-29T01:37:25;10.30;;;8.15;;
20393;SDS011;10356;50.544;9.642;2023-04-29T01:40:04;11.65;;;8.50;;
20393;SDS011;10356;50.544;9.642;2023-04-29T01:42:38;9.43;;;8.25;;
20393;SDS011;10356;50.544;9.642;2023-04-29T01:45:09;12.98;;;9.18;;
20393;SDS011;10356;50.544;9.642;2023-04-29T01:47:39;13.32;;;10.15;;
20393;SDS011;10356;50.544;9.642;2023-04-29T01:50:07;14.60;;;9.93;;
20393;SDS011;10356;50.544;9.642;2023-04-29T01:52:34;14.90;;;10.57;;
20393;SDS011;10356;50.544;9.642;2023-04-29T01:55:02;12.30;;;9.60;;
20393;SDS011;10356;50.544;9.642;2023-04-29T01:57:29;12.52;;;9.00;;
20393;SDS011;10356;50.544;9.642;2023-04-29T01:59:55;11.63;;;9.00;;
20393;SDS011;10356;50.544;9.642;2023-04-29T02:02:22;11.60;;;9.20;;
20393;SDS011;10356;50.544;9.642;2023-04-29T02:04:49;12.02;;;8.85;;
20393;SDS011;10356;50.544;9.642;2023-04-29T02:07:15;15.35;;;9.95;;
20393;SDS011;10356;50.544;9.642;2023-04-29T02:09:42;13.18;;;10.07;;
20393;SDS011;10356;50.544;9.642;2023-04-29T02:12:10;10.63;;;8.82;;
20393;SDS011;10356;50.544;9.642;2023-04-29T02:14:36;12.00;;;9.45;;
20393;SDS011;10356;50.544;9.642;2023-04-29T02:17:03;15.18;;;10.48;;
20393;SDS011;10356;50.544;9.642;2023-04-29T02:19:30;14.98;;;10.40;;
20393;SDS011;10356;50.544;9.642;2023-04-29T02:21:56;14.77;;;9.77;;
20393;SDS011;10356;50.544;9.642;2023-04-29T02:24:22;13.85;;;10.32;;
20393;SDS011;10356;50.544;9.642;2023-04-29T02:26:49;12.55;;;8.63;;
20393;SDS011;10356;50.544;9.642;2023-04-29T02:29:17;13.90;;;9.02;;
20393;SDS011;10356;50.544;9.642;2023-04-29T02:31:43;11.43;;;8.57;;
20393;SDS011;10356;50.544;9.642;2023-04-29T02:34:10;10.57;;;8.65;;
20393;SDS011;10356;50.544;9.642;2023-04-29T02:36:36;13.30;;;9.35;;
20393;SDS011;10356;50.544;9.642;2023-04-29T02:39:03;13.00;;;10.30;;
20393;SDS011;10356;50.544;9.642;2023-04-29T02:41:29;13.02;;;9.80;;
20393;SDS011;10356;50.544;9.642;2023-04-29T02:43:56;14.27;;;9.43;;
20393;SDS011;10356;50.544;9.642;2023-04-29T02:46:24;13.23;;;9.27;;
20393;SDS011;10356;50.544;9.642;2023-04-29T02:48:50;12.27;;;9.23;;
20393;SDS011;10356;50.544;9.642;2023-04-29T02:51:17;10.55;;;8.65;;
20393;SDS011;10356;50.544;9.642;2023-04-29T02:53:43;11.93;;;9.98;;
20393;SDS011;10356;50.544;9.642;2023-04-29T02:56:10;13.15;;;9.48;;
20393;SDS011;10356;50.544;9.642;2023-04-29T02:58:36;13.35;;;10.10;;
20393;SDS011;10356;50.544;9.642;2023-04-29T03:01:03;13.50;;;9.48;;
20393;SDS011;10356;50.544;9.642;2023-04-29T03:03:31;12.88;;;10.20;;
20393;SDS011;10356;50.544;9.642;2023-04-29T03:05:57;15.90;;;11.32;;
20393;SDS011;10356;50.544;9.642;2023-04-29T03:08:24;14.13;;;10.70;;
20393;SDS011;10356;50.544;9.642;2023-04-29T03:10:50;14.77;;;10.52;;
20393;SDS011;10356;50.544;9.642;2023-04-29T03:13:16;15.20;;;9.80;;
20393;SDS011;10356;50.544;9.642;2023-04-29T03:15:43;12.35;;;9.50;;
20393;SDS011;10356;50.544;9.642;2023-04-29T03:18:10;10.48;;;9.15;;
20393;SDS011;10356;50.544;9.642;2023-04-29T03:20:37;14.00;;;9.60;;
20393;SDS011;10356;50.544;9.642;2023-04-29T03:23:04;12.32;;;9.30;;
20393;SDS011;10356;50.544;9.642;2023-04-29T03:25:30;11.95;;;9.45;;
20393;SDS011;10356;50.544;9.642;2023-04-29T03:27:57;11.85;;;9.48;;
20393;SDS011;10356;50.544;9.642;2023-04-29T03:30:24;14.32;;;10.45;;
20393;SDS011;10356;50.544;9.642;2023-04-29T03:32:51;13.63;;;10.23;;
20393;SDS011;10356;50.544;9.642;2023-04-29T03:35:17;13.93;;;10.20;;
20393;SDS011;10356;50.544;9.642;2023-04-29T03:37:45;12.73;;;9.93;;
20393;SDS011;10356;50.544;9.642;2023-04-29T03:40:12;12.27;;;9.68;;
20393;SDS011;10356;50.544;9.642;2023-04-29T03:42:39;12.60;;;10.05;;
20393;SDS011;10356;50.544;9.642;2023-04-29T03:45:06;14.15;;;10.40;;
20393;SDS011;10356;50.544;9.642;2023-04-29T03:47:33;12.48;;;10.48;;
20393;SDS011;10356;50.544;9.642;2023-04-29T03:50:00;16.45;;;13.02;;
20393;SDS011;10356;50.544;9.642;2023-04-29T03:52:26;15.55;;;11.43;;
20393;SDS011;10356;50.544;9.642;2023-04-29T03:54:54;15.88;;;11.80;;
20393;SDS011;10356;50.544;9.642;2023-04-29T03:57:21;14.30;;;10.75;;
20393;SDS011;10356;50.544;9.642;2023-04-29T03:59:47;14.43;;;11.10;;
20393;SDS011;10356;50.544;9.642;2023-04-29T04:02:14;19.08;;;12.68;;
20393;SDS011;10356;50.544;9.642;2023-04-29T04:04:41;16.27;;;13.07;;
20393;SDS011;10356;50.544;9.642;2023-04-29T04:07:08;14.23;;;11.55;;
20393;SDS011;10356;50.544;9.642;2023-04-29T04:09:35;15.93;;;12.55;;
20393;SDS011;10356;50.544;9.642;2023-04-29T04:12:03;15.15;;;12.38;;
20393;SDS011;10356;50.544;9.642;2023-04-29T04:14:31;17.67;;;12.85;;
20393;SDS011;10356;50.544;9.642;2023-04-29T04:16:58;17.15;;;12.20;;
20393;SDS011;10356;50.544;9.642;2023-04-29T04:19:24;15.75;;;12.70;;
20393;SDS011;10356;50.544;9.642;2023-04-29T04:21:53;15.90;;;11.50;;
20393;SDS011;10356;50.544;9.642;2023-04-29T04:24:19;13.55;;;10.85;;
20393;SDS011;10356;50.544;9.642;2023-04-29T04:26:46;16.58;;;12.45;;
20393;SDS011;10356;50.544;9.642;2023-04-29T04:29:14;18.25;;;14.75;;
20393;SDS011;10356;50.544;9.642;2023-04-29T04:31:40;13.63;;;11.00;;
20393;SDS011;10356;50.544;9.642;2023-04-29T04:34:07;13.68;;;11.18;;
20393;SDS011;10356;50.544;9.642;2023-04-29T04:36:33;12.88;;;10.38;;
20393;SDS011;10356;50.544;9.642;2023-04-29T04:39:00;18.02;;;10.40;;
20393;SDS011;10356;50.544;9.642;2023-04-29T04:41:26;15.68;;;11.93;;
20393;SDS011;10356;50.544;9.642;2023-04-29T04:43:55;18.75;;;12.40;;
20393;SDS011;10356;50.544;9.642;2023-04-29T04:46:23;18.70;;;12.70;;
20393;SDS011;10356;50.544;9.642;2023-04-29T04:48:49;19.65;;;13.75;;
20393;SDS011;10356;50.544;9.642;2023-04-29T04:51:16;19.55;;;13.13;;
20393;SDS011;10356;50.544;9.642;2023-04-29T04:53:42;21.50;;;13.43;;
20393;SDS011;10356;50.544;9.642;2023-04-29T04:56:09;21.00;;;14.70;;
20393;SDS011;10356;50.544;9.642;2023-04-29T04:58:35;21.27;;;13.43;;
20393;SDS011;10356;50.544;9.642;2023-04-29T05:01:02;24.73;;;15.13;;
20393;SDS011;10356;50.544;9.642;2023-04-29T05:03:29;22.23;;;15.32;;
20393;SDS011;10356;50.544;9.642;2023-04-29T05:05:56;19.38;;;13.27;;
20393;SDS011;10356;50.544;9.642;2023-04-29T05:08:24;22.00;;;13.30;;
20393;SDS011;10356;50.544;9.642;2023-04-29T05:10:50;17.05;;;12.32;;
20393;SDS011;10356;50.544;9.642;2023-04-29T05:13:17;17.73;;;12.43;;
20393;SDS011;10356;50.544;9.642;2023-04-29T05:15:44;16.77;;;11.75;;
20393;SDS011;10356;50.544;9.642;2023-04-29T05:18:10;18.17;;;12.77;;
20393;SDS011;10356;50.544;9.642;2023-04-29T05:20:39;16.70;;;11.70;;
20393;SDS011;10356;50.544;9.642;2023-04-29T05:23:05;18.77;;;12.98;;
20393;SDS011;10356;50.544;9.642;2023-04-29T05:25:31;18.35;;;12.38;;
20393;SDS011;10356;50.544;9.642;2023-04-29T05:27:58;18.63;;;12.27;;
20393;SDS011;10356;50.544;9.642;2023-04-29T05:30:24;18.08;;;12.27;;
20393;SDS011;10356;50.544;9.642;2023-04-29T05:32:51;20.27;;;13.35;;
20393;SDS011;10356;50.544;9.642;2023-04-29T05:35:17;19.15;;;12.40;;
20393;SDS011;10356;50.544;9.642;2023-04-29T05:37:45;17.02;;;11.93;;
20393;SDS011;10356;50.544;9.642;2023-04-29T05:40:12;19.75;;;12.85;;
20393;SDS011;10356;50.544;9.642;2023-04-29T05:42:38;19.77;;;12.52;;
20393;SDS011;10356;50.544;9.642;2023-04-29T05:45:05;19.35;;;12.20;;
20393;SDS011;10356;50.544;9.642;2023-04-29T05:47:33;17.60;;;12.18;;
20393;SDS011;10356;50.544;9.642;2023-04-29T05:49:59;17.50;;;12.40;;
20393;SDS011;10356;50.544;9.642;2023-04-29T05:52:26;17.92;;;12.05;;
20393;SDS011;10356;50.544;9.642;2023-04-29T05:54:53;21.52;;;12.52;;
20393;SDS011;10356;50.544;9.642;2023-04-29T05:57:20;19.15;;;12.93;;
20393;SDS011;10356;50.544;9.642;2023-04-29T05:59:47;18.70;;;12.15;;
20393;SDS011;10356;50.544;9.642;2023-04-29T06:02:13;18.08;;;11.93;;
20393;SDS011;10356;50.544;9.642;2023-04-29T06:04:40;14.52;;;11.60;;
20393;SDS011;10356;50.544;9.642;2023-04-29T06:07:07;17.63;;;11.00;;
20393;SDS011;10356;50.544;9.642;2023-04-29T06:09:34;16.83;;;11.10;;
20393;SDS011;10356;50.544;9.642;2023-04-29T06:12:03;17.00;;;11.68;;
20393;SDS011;10356;50.544;9.642;2023-04-29T06:14:30;17.50;;;11.43;;
20393;SDS011;10356;50.544;9.642;2023-04-29T06:16:56;16.42;;;11.10;;
20393;SDS011;10356;50.544;9.642;2023-04-29T06:19:23;16.55;;;11.52;;
20393;SDS011;10356;50.544;9.642;2023-04-29T06:21:50;17.45;;;11.70;;
20393;SDS011;10356;50.544;9.642;2023-04-29T06:24:16;16.38;;;11.82;;
20393;SDS011;10356;50.544;9.642;2023-04-29T06:26:43;16.73;;;11.50;;
20393;SDS011;10356;50.544;9.642;2023-04-29T06:29:11;17.80;;;11.68;;
20393;SDS011;10356;50.544;9.642;2023-04-29T06:31:37;18.45;;;12.77;;
20393;SDS011;10356;50.544;9.642;2023-04-29T06:34:04;17.45;;;11.40;;
20393;SDS011;10356;50.544;9.642;2023-04-29T06:36:31;15.15;;;10.57;;
20393;SDS011;10356;50.544;9.642;2023-04-29T06:38:57;16.33;;;10.68;;
20393;SDS011;10356;50.544;9.642;2023-04-29T06:41:24;14.77;;;10.95;;
20393;SDS011;10356;50.544;9.642;2023-04-29T06:43:51;15.35;;;11.57;;
20393;SDS011;10356;50.544;9.642;2023-04-29T06:46:19;16.65;;;10.48;;
20393;SDS011;10356;50.544;9.642;2023-04-29T06:48:45;19.25;;;10.15;;
20393;SDS011;10356;50.544;9.642;2023-04-29T06:51:12;16.35;;;10.57;;
20393;SDS011;10356;50.544;9.642;2023-04-29T06:53:38;15.02;;;10.20;;
20393;SDS011;10356;50.544;9.642;2023-04-29T06:56:05;13.02;;;9.35;;
20393;SDS011;10356;50.544;9.642;2023-04-29T06:58:32;15.90;;;10.20;;
20393;SDS011;10356;50.544;9.642;2023-04-29T07:00:59;15.63;;;10.25;;
20393;SDS011;10356;50.544;9.642;2023-04-29T07:03:28;13.02;;;9.40;;
20393;SDS011;10356;50.544;9.642;2023-04-29T07:05:55;14.98;;;9.73;;
20393;SDS011;10356;50.544;9.642;2023-04-29T07:08:21;13.32;;;9.52;;
20393;SDS011;10356;50.544;9.642;2023-04-29T07:10:52;14.48;;;9.95;;
20393;SDS011;10356;50.544;9.642;2023-04-29T07:13:19;15.07;;;10.73;;
20393;SDS011;10356;50.544;9.642;2023-04-29T07:15:46;11.98;;;9.05;;
20393;SDS011;10356;50.544;9.642;2023-04-29T07:18:12;11.55;;;8.93;;
20393;SDS011;10356;50.544;9.642;2023-04-29T07:20:40;15.45;;;9.18;;
20393;SDS011;10356;50.544;9.642;2023-04-29T07:23:07;12.20;;;8.63;;
20393;SDS011;10356;50.544;9.642;2023-04-29T07:25:34;14.48;;;9.48;;
20393;SDS011;10356;50.544;9.642;2023-04-29T07:28:00;11.75;;;8.80;;
20393;SDS011;10356;50.544;9.642;2023-04-29T07:30:27;12.85;;;8.38;;
20393;SDS011;10356;50.544;9.642;2023-04-29T07:32:54;11.32;;;7.88;;
20393;SDS011;10356;50.544;9.642;2023-04-29T07:35:20;16.17;;;8.50;;
20393;SDS011;10356;50.544;9.642;2023-04-29T07:37:49;11.13;;;8.05;;
20393;SDS011;10356;50.544;9.642;2023-04-29T07:40:15;10.52;;;8.30;;
20393;SDS011;10356;50.544;9.642;2023-04-29T07:42:42;10.15;;;7.05;;
20393;SDS011;10356;50.544;9.642;2023-04-29T07:45:09;9.50;;;6.50;;
20393;SDS011;10356;50.544;9.642;2023-04-29T07:47:37;10.82;;;7.63;;
20393;SDS011;10356;50.544;9.642;2023-04-29T07:50:04;9.60;;;7.07;;
20393;SDS011;10356;50.544;9.642;2023-04-29T07:52:31;10.63;;;7.82;;
20393;SDS011;10356;50.544;9.642;2023-04-29T07:55:00;12.32;;;7.20;;
20393;SDS011;10356;50.544;9.642;2023-04-29T07:57:30;10.25;;;6.93;;
20393;SDS011;10356;50.544;9.642;2023-04-29T07:59:57;9.20;;;6.38;;
20393;SDS011;10356;50.544;9.642;2023-04-29T08:02:23;11.57;;;7.30;;
20393;SDS011;10356;50.544;9.642;2023-04-29T08:04:50;10.00;;;7.03;;
20393;SDS011;10356;50.544;9.642;2023-04-29T08:07:18;9.52;;;7.03;;
20393;SDS011;10356;50.544;9.642;2023-04-29T08:09:44;8.98;;;6.65;;
20393;SDS011;10356;50.544;9.642;2023-04-29T08:12:12;8.98;;;6.75;;
20393;SDS011;10356;50.544;9.642;2023-04-29T08:14:38;8.65;;;6.78;;
20393;SDS011;10356;50.544;9.642;2023-04-29T08:17:05;9.25;;;6.80;;
20393;SDS011;10356;50.544;9.642;2023-04-29T08:19:32;8.43;;;6.35;;
20393;SDS011;10356;50.544;9.642;2023-04-29T08:21:58;7.35;;;6.05;;
20393;SDS011;10356;50.544;9.642;2023-04-29T08:24:28;7.32;;;5.45;;
20393;SDS011;10356;50.544;9.642;2023-04-29T08:26:55;8.63;;;6.40;;
20393;SDS011;10356;50.544;9.642;2023-04-29T08:29:24;8.27;;;5.72;;
20393;SDS011;10356;50.544;9.642;2023-04-29T08:31:50;8.95;;;6.93;;
20393;SDS011;10356;50.544;9.642;2023-04-29T08:34:17;10.57;;;6.55;;
20393;SDS011;10356;50.544;9.642;2023-04-29T08:36:43;8.93;;;6.25;;
20393;SDS011;10356;50.544;9.642;2023-04-29T08:39:10;7.75;;;5.70;;
20393;SDS011;10356;50.544;9.642;2023-04-29T08:41:36;7.70;;;5.68;;
20393;SDS011;10356;50.544;9.642;2023-04-29T08:44:03;7.38;;;6.20;;
20393;SDS011;10356;50.544;9.642;2023-04-29T08:46:32;6.53;;;5.60;;
20393;SDS011;10356;50.544;9.642;2023-04-29T08:48:58;9.15;;;5.60;;
20393;SDS011;10356;50.544;9.642;2023-04-29T08:51:28;6.68;;;5.28;;
20393;SDS011;10356;50.544;9.642;2023-04-29T08:53:56;8.70;;;6.10;;
20393;SDS011;10356;50.544;9.642;2023-04-29T08:56:22;9.57;;;6.10;;
20393;SDS011;10356;50.544;9.642;2023-04-29T08:58:49;8.07;;;5.38;;
20393;SDS011;10356;50.544;9.642;2023-04-29T09:01:18;7.65;;;5.57;;
20393;SDS011;10356;50.544;9.642;2023-04-29T09:03:48;6.55;;;5.32;;
20393;SDS011;10356;50.544;9.642;2023-04-29T09:06:19;7.93;;;5.30;;
20393;SDS011;10356;50.544;9.642;2023-04-29T09:08:45;6.65;;;5.05;;
20393;SDS011;10356;50.544;9.642;2023-04-29T09:11:12;7.10;;;5.22;;
20393;SDS011;10356;50.544;9.642;2023-04-29T09:13:39;9.18;;;5.40;;
20393;SDS011;10356;50.544;9.642;2023-04-29T09:16:09;9.07;;;5.45;;
20393;SDS011;10356;50.544;9.642;2023-04-29T09:18:46;6.97;;;5.18;;
20393;SDS011;10356;50.544;9.642;2023-04-29T09:21:16;5.25;;;4.55;;
20393;SDS011;10356;50.544;9.642;2023-04-29T09:23:44;7.57;;;4.95;;
20393;SDS011;10356;50.544;9.642;2023-04-29T09:26:11;6.20;;;4.70;;
20393;SDS011;10356;50.544;9.642;2023-04-29T09:28:37;7.32;;;5.15;;
20393;SDS011;10356;50.544;9.642;2023-04-29T09:31:07;6.57;;;4.93;;
20393;SDS011;10356;50.544;9.642;2023-04-29T09:33:52;9.32;;;5.47;;
20393;SDS011;10356;50.544;9.642;2023-04-29T09:36:38;7.45;;;5.45;;
20393;SDS011;10356;50.544;9.642;2023-04-29T09:39:07;6.88;;;5.20;;
20393;SDS011;10356;50.544;9.642;2023-04-29T09:41:40;7.18;;;5.28;;
20393;SDS011;10356;50.544;9.642;2023-04-29T09:44:09;7.95;;;5.75;;
20393;SDS011;10356;50.544;9.642;2023-04-29T09:46:35;8.40;;;5.47;;
20393;SDS011;10356;50.544;9.642;2023-04-29T09:49:04;7.78;;;5.45;;
20393;SDS011;10356;50.544;9.642;2023-04-29T09:51:51;7.47;;;5.60;;
20393;SDS011;10356;50.544;9.642;2023-04-29T09:54:19;8.27;;;5.78;;
20393;SDS011;10356;50.544;9.642;2023-04-29T09:56:47;6.85;;;5.35;;
20393;SDS011;10356;50.544;9.642;2023-04-29T09:59:15;6.70;;;5.05;;
20393;SDS011;10356;50.544;9.642;2023-04-29T10:01:42;7.75;;;5.60;;
20393;SDS011;10356;50.544;9.642;2023-04-29T10:04:10;7.00;;;5.72;;
20393;SDS011;10356;50.544;9.642;2023-04-29T10:06:37;6.57;;;5.15;;
20393;SDS011;10356;50.544;9.642;2023-04-29T10:09:06;7.65;;;5.30;;
20393;SDS011;10356;50.544;9.642;2023-04-29T10:11:34;6.85;;;4.70;;
20393;SDS011;10356;50.544;9.642;2023-04-29T10:14:01;6.18;;;4.75;;
20393;SDS011;10356;50.544;9.642;2023-04-29T10:16:31;3.30;;;3.00;;
20393;SDS011;10356;50.544;9.642;2023-04-29T10:19:02;3.30;;;2.65;;
20393;SDS011;10356;50.544;9.642;2023-04-29T10:21:32;3.20;;;2.65;;
20393;SDS011;10356;50.544;9.642;2023-04-29T10:23:59;4.10;;;2.70;;
20393;SDS011;10356;50.544;9.642;2023-04-29T10:26:28;3.70;;;2.83;;
20393;SDS011;10356;50.544;9.642;2023-04-29T10:28:56;3.58;;;2.60;;
20393;SDS011;10356;50.544;9.642;2023-04-29T10:31:24;3.28;;;2.40;;
20393;SDS011;10356;50.544;9.642;2023-04-29T10:33:51;3.70;;;2.72;;
20393;SDS011;10356;50.544;9.642;2023-04-29T10:36:21;3.83;;;3.20;;
20393;SDS011;10356;50.544;9.642;2023-04-29T10:38:50;4.60;;;3.63;;
20393;SDS011;10356;50.544;9.642;2023-04-29T10:41:20;6.53;;;3.28;;
20393;SDS011;10356;50.544;9.642;2023-04-29T10:43:49;4.28;;;3.55;;
20393;SDS011;10356;50.544;9.642;2023-04-29T10:46:17;4.22;;;3.40;;
20393;SDS011;10356;50.544;9.642;2023-04-29T10:48:45;4.97;;;3.33;;
20393;SDS011;10356;50.544;9.642;2023-04-29T10:51:12;4.85;;;3.67;;
20393;SDS011;10356;50.544;9.642;2023-04-29T10:54:01;3.70;;;3.05;;
20393;SDS011;10356;50.544;9.642;2023-04-29T10:56:34;5.70;;;5.10;;
20393;SDS011;10356;50.544;9.642;2023-04-29T10:59:05;5.38;;;3.83;;
20393;SDS011;10356;50.544;9.642;2023-04-29T11:01:46;4.78;;;4.30;;
20393;SDS011;10356;50.544;9.642;2023-04-29T11:04:14;4.28;;;3.88;;
20393;SDS011;10356;50.544;9.642;2023-04-29T11:06:45;3.47;;;3.05;;
20393;SDS011;10356;50.544;9.642;2023-04-29T11:09:17;4.82;;;3.03;;
20393;SDS011;10356;50.544;9.642;2023-04-29T11:11:46;7.30;;;3.08;;
20393;SDS011;10356;50.544;9.642;2023-04-29T11:14:28;3.30;;;2.88;;
20393;SDS011;10356;50.544;9.642;2023-04-29T11:16:56;2.90;;;2.60;;
20393;SDS011;10356;50.544;9.642;2023-04-29T11:19:25;5.07;;;2.80;;
20393;SDS011;10356;50.544;9.642;2023-04-29T11:22:12;4.60;;;2.95;;
20393;SDS011;10356;50.544;9.642;2023-04-29T11:24:52;5.13;;;3.58;;
20393;SDS011;10356;50.544;9.642;2023-04-29T11:27:21;4.63;;;3.17;;
20393;SDS011;10356;50.544;9.642;2023-04-29T11:29:50;5.03;;;3.17;;
20393;SDS011;10356;50.544;9.642;2023-04-29T11:32:22;3.80;;;2.88;;
20393;SDS011;10356;50.544;9.642;2023-04-29T11:34:49;4.35;;;3.08;;
20393;SDS011;10356;50.544;9.642;2023-04-29T11:37:19;4.15;;;3.10;;
20393;SDS011;10356;50.544;9.642;2023-04-29T11:39:47;3.63;;;3.05;;
20393;SDS011;10356;50.544;9.642;2023-04-29T11:42:19;4.78;;;2.70;;
20393;SDS011;10356;50.544;9.642;2023-04-29T11:44:46;5.15;;;2.97;;
20393;SDS011;10356;50.544;9.642;2023-04-29T11:47:17;5.22;;;3.38;;
20393;SDS011;10356;50.544;9.642;2023-04-29T11:49:43;4.55;;;3.88;;
20393;SDS011;10356;50.544;9.642;2023-04-29T11:52:09;4.53;;;3.63;;
20393;SDS011;10356;50.544;9.642;2023-04-29T11:54:36;4.47;;;3.90;;
20393;SDS011;10356;50.544;9.642;2023-04-29T11:57:03;4.07;;;3.58;;
20393;SDS011;10356;50.544;9.642;2023-04-29T11:59:31;4.45;;;3.65;;
20393;SDS011;10356;50.544;9.642;2023-04-29T12:01:57;3.78;;;3.30;;
20393;SDS011;10356;50.544;9.642;2023-04-29T12:04:24;4.30;;;3.85;;
20393;SDS011;10356;50.544;9.642;2023-04-29T12:06:51;3.92;;;3.50;;
20393;SDS011;10356;50.544;9.642;2023-04-29T12:09:18;4.30;;;3.90;;
20393;SDS011;10356;50.544;9.642;2023-04-29T12:11:45;5.38;;;3.90;;
20393;SDS011;10356;50.544;9.642;2023-04-29T12:14:12;4.78;;;4.03;;
20393;SDS011;10356;50.544;9.642;2023-04-29T12:16:40;7.60;;;4.20;;
20393;SDS011;10356;50.544;9.642;2023-04-29T12:19:07;4.00;;;3.60;;
20393;SDS011;10356;50.544;9.642;2023-04-29T12:21:34;4.90;;;3.42;;
20393;SDS011;10356;50.544;9.642;2023-04-29T12:24:01;4.40;;;2.90;;
20393;SDS011;10356;50.544;9.642;2023-04-29T12:26:29;7.90;;;3.33;;
20393;SDS011;10356;50.544;9.642;2023-04-29T12:28:56;8.23;;;2.70;;
20393;SDS011;10356;50.544;9.642;2023-04-29T12:31:31;5.00;;;2.97;;
20393;SDS011;10356;50.544;9.642;2023-04-29T12:34:01;3.15;;;2.80;;
20393;SDS011;10356;50.544;9.642;2023-04-29T12:36:28;5.78;;;3.15;;
20393;SDS011;10356;50.544;9.642;2023-04-29T12:38:55;3.00;;;2.58;;
20393;SDS011;10356;50.544;9.642;2023-04-29T12:41:36;3.45;;;2.90;;
20393;SDS011;10356;50.544;9.642;2023-04-29T12:44:04;4.43;;;2.97;;
20393;SDS011;10356;50.544;9.642;2023-04-29T12:46:34;4.78;;;3.20;;
20393;SDS011;10356;50.544;9.642;2023-04-29T12:49:03;3.60;;;2.90;;
20393;SDS011;10356;50.544;9.642;2023-04-29T12:51:31;4.22;;;3.28;;
20393;SDS011;10356;50.544;9.642;2023-04-29T12:53:58;4.25;;;3.67;;
20393;SDS011;10356;50.544;9.642;2023-04-29T12:56:25;4.97;;;3.65;;
20393;SDS011;10356;50.544;9.642;2023-04-29T12:58:52;3.53;;;3.08;;
20393;SDS011;10356;50.544;9.642;2023-04-29T13:01:18;5.30;;;3.70;;
20393;SDS011;10356;50.544;9.642;2023-04-29T13:03:45;5.18;;;4.20;;
20393;SDS011;10356;50.544;9.642;2023-04-29T13:06:14;5.05;;;4.20;;
20393;SDS011;10356;50.544;9.642;2023-04-29T13:08:42;4.80;;;4.30;;
20393;SDS011;10356;50.544;9.642;2023-04-29T13:11:08;6.50;;;5.50;;
20393;SDS011;10356;50.544;9.642;2023-04-29T13:13:37;7.10;;;5.18;;
20393;SDS011;10356;50.544;9.642;2023-04-29T13:16:05;5.70;;;4.93;;
20393;SDS011;10356;50.544;9.642;2023-04-29T13:18:32;4.93;;;4.43;;
20393;SDS011;10356;50.544;9.642;2023-04-29T13:20:58;7.25;;;5.28;;
20393;SDS011;10356;50.544;9.642;2023-04-29T13:23:26;8.02;;;6.20;;
20393;SDS011;10356;50.544;9.642;2023-04-29T13:25:53;11.55;;;8.75;;
20393;SDS011;10356;50.544;9.642;2023-04-29T13:28:19;11.90;;;8.65;;
20393;SDS011;10356;50.544;9.642;2023-04-29T13:30:46;11.40;;;8.63;;
20393;SDS011;10356;50.544;9.642;2023-04-29T13:33:13;11.45;;;8.73;;
20393;SDS011;10356;50.544;9.642;2023-04-29T13:35:39;12.75;;;9.32;;
20393;SDS011;10356;50.544;9.642;2023-04-29T13:38:06;16.63;;;10.88;;
20393;SDS011;10356;50.544;9.642;2023-04-29T13:40:34;17.38;;;10.23;;
20393;SDS011;10356;50.544;9.642;2023-04-29T13:43:00;29.67;;;19.30;;
20393;SDS011;10356;50.544;9.642;2023-04-29T13:45:27;30.80;;;20.42;;
20393;SDS011;10356;50.544;9.642;2023-04-29T13:47:54;31.02;;;21.45;;
20393;SDS011;10356;50.544;9.642;2023-04-29T13:50:20;17.05;;;14.07;;
20393;SDS011;10356;50.544;9.642;2023-04-29T13:52:47;12.05;;;10.80;;
20393;SDS011;10356;50.544;9.642;2023-04-29T13:55:13;11.57;;;9.05;;
20393;SDS011;10356;50.544;9.642;2023-04-29T13:57:41;13.02;;;9.05;;
20393;SDS011;10356;50.544;9.642;2023-04-29T14:00:08;11.57;;;8.65;;
20393;SDS011;10356;50.544;9.642;2023-04-29T14:02:36;11.38;;;8.57;;
20393;SDS011;10356;50.544;9.642;2023-04-29T14:05:03;10.48;;;9.18;;
20393;SDS011;10356;50.544;9.642;2023-04-29T14:07:30;12.38;;;9.00;;
20393;SDS011;10356;50.544;9.642;2023-04-29T14:09:57;13.70;;;9.02;;
20393;SDS011;10356;50.544;9.642;2023-04-29T14:12:23;12.57;;;9.30;;
20393;SDS011;10356;50.544;9.642;2023-04-29T14:14:51;12.50;;;10.07;;
20393;SDS011;10356;50.544;9.642;2023-04-29T14:17:18;14.77;;;10.52;;
20393;SDS011;10356;50.544;9.642;2023-04-29T14:19:45;12.90;;;9.90;;
20393;SDS011;10356;50.544;9.642;2023-04-29T14:22:11;12.43;;;10.10;;
20393;SDS011;10356;50.544;9.642;2023-04-29T14:24:38;13.98;;;10.70;;
20393;SDS011;10356;50.544;9.642;2023-04-29T14:27:05;14.80;;;12.15;;
20393;SDS011;10356;50.544;9.642;2023-04-29T14:29:31;14.70;;;10.45;;
20393;SDS011;10356;50.544;9.642;2023-04-29T14:31:59;13.10;;;10.43;;
20393;SDS011;10356;50.544;9.642;2023-04-29T14:34:25;12.80;;;9.73;;
20393;SDS011;10356;50.544;9.642;2023-04-29T14:36:52;12.75;;;10.38;;
20393;SDS011;10356;50.544;9.642;2023-04-29T14:39:18;12.38;;;10.10;;